Terminal Aerodrome Forecast
Issued by NWS New Orleans/Baton Rouge, LA

Home | Current Version | Previous Version | Text Only | Print | Product List | Glossary On
Versions: 1 2 3 4 5 6 7 8 9 10 11 12 13
000
FTUS44 KLIX 300314 AAA
TAFBTR
TAF AMD
KBTR 300314Z 3003/3024 09006KT P6SM VCTS SCT030CB BKN070
      TEMPO 3003/3005 VRB12G20KT 2SM TSRA BKN030CB
     FM300500 VRB03KT P6SM FEW050 BKN250
     FM301430 35008KT P6SM FEW080 SCT190=

USA.gov is the U.S. government's official web portal to all federal, state and local government web resources and services.